sensor_id;sensor_type;location;lat;lon;timestamp;temperature;humidity
33255;DHT22;19623;52.482;9.762;2023-01-06T00:01:53;9.50;99.90
33255;DHT22;19623;52.482;9.762;2023-01-06T00:04:19;9.50;99.90
33255;DHT22;19623;52.482;9.762;2023-01-06T00:06:44;9.50;99.90
33255;DHT22;19623;52.482;9.762;2023-01-06T00:09:10;9.50;99.90
33255;DHT22;19623;52.482;9.762;2023-01-06T00:11:36;9.50;99.90
33255;DHT22;19623;52.482;9.762;2023-01-06T00:14:02;9.50;99.90
33255;DHT22;19623;52.482;9.762;2023-01-06T00:16:28;9.50;99.90
33255;DHT22;19623;52.482;9.762;2023-01-06T00:18:56;9.50;99.90
33255;DHT22;19623;52.482;9.762;2023-01-06T00:21:22;9.50;99.90
33255;DHT22;19623;52.482;9.762;2023-01-06T00:23:48;9.50;99.90
33255;DHT22;19623;52.482;9.762;2023-01-06T00:26:13;9.50;99.90
33255;DHT22;19623;52.482;9.762;2023-01-06T00:28:39;9.50;99.90
33255;DHT22;19623;52.482;9.762;2023-01-06T00:31:13;9.40;99.90
33255;DHT22;19623;52.482;9.762;2023-01-06T00:33:39;9.40;99.90
33255;DHT22;19623;52.482;9.762;2023-01-06T00:36:06;9.40;99.90
33255;DHT22;19623;52.482;9.762;2023-01-06T00:38:32;9.50;99.90
33255;DHT22;19623;52.482;9.762;2023-01-06T00:41:03;9.50;99.90
33255;DHT22;19623;52.482;9.762;2023-01-06T00:43:29;9.40;99.90
33255;DHT22;19623;52.482;9.762;2023-01-06T00:45:55;9.50;99.90
33255;DHT22;19623;52.482;9.762;2023-01-06T00:48:21;9.40;99.90
33255;DHT22;19623;52.482;9.762;2023-01-06T00:50:47;9.40;99.90
33255;DHT22;19623;52.482;9.762;2023-01-06T00:53:12;9.40;99.90
33255;DHT22;19623;52.482;9.762;2023-01-06T00:55:38;9.40;99.90
33255;DHT22;19623;52.482;9.762;2023-01-06T00:58:03;9.40;99.90
33255;DHT22;19623;52.482;9.762;2023-01-06T01:00:29;9.50;99.90
33255;DHT22;19623;52.482;9.762;2023-01-06T01:02:55;9.40;99.90
33255;DHT22;19623;52.482;9.762;2023-01-06T01:05:20;9.40;99.90
33255;DHT22;19623;52.482;9.762;2023-01-06T01:07:46;9.50;99.90
33255;DHT22;19623;52.482;9.762;2023-01-06T01:10:11;9.50;99.90
33255;DHT22;19623;52.482;9.762;2023-01-06T01:12:37;9.50;99.90
33255;DHT22;19623;52.482;9.762;2023-01-06T01:15:03;9.50;99.90
33255;DHT22;19623;52.482;9.762;2023-01-06T01:17:30;9.40;99.90
33255;DHT22;19623;52.482;9.762;2023-01-06T01:19:56;9.50;99.90
33255;DHT22;19623;52.482;9.762;2023-01-06T01:22:25;9.50;99.90
33255;DHT22;19623;52.482;9.762;2023-01-06T01:24:51;9.60;99.90
33255;DHT22;19623;52.482;9.762;2023-01-06T01:27:17;9.60;99.90
33255;DHT22;19623;52.482;9.762;2023-01-06T01:29:43;9.60;99.90
33255;DHT22;19623;52.482;9.762;2023-01-06T01:32:09;9.60;99.90
33255;DHT22;19623;52.482;9.762;2023-01-06T01:34:34;9.60;99.90
33255;DHT22;19623;52.482;9.762;2023-01-06T01:37:00;9.60;99.90
33255;DHT22;19623;52.482;9.762;2023-01-06T01:39:28;9.60;99.90
33255;DHT22;19623;52.482;9.762;2023-01-06T01:41:55;9.60;99.90
33255;DHT22;19623;52.482;9.762;2023-01-06T01:47:39;9.60;99.90
33255;DHT22;19623;52.482;9.762;2023-01-06T01:50:13;9.60;99.90
33255;DHT22;19623;52.482;9.762;2023-01-06T01:52:42;9.50;99.90
33255;DHT22;19623;52.482;9.762;2023-01-06T01:55:10;9.50;99.90
33255;DHT22;19623;52.482;9.762;2023-01-06T01:57:40;9.40;99.90
33255;DHT22;19623;52.482;9.762;2023-01-06T02:00:08;9.50;99.90
33255;DHT22;19623;52.482;9.762;2023-01-06T02:02:35;9.50;99.90
33255;DHT22;19623;52.482;9.762;2023-01-06T02:05:01;9.50;99.90
33255;DHT22;19623;52.482;9.762;2023-01-06T02:07:27;9.40;99.90
33255;DHT22;19623;52.482;9.762;2023-01-06T02:10:08;9.50;99.90
33255;DHT22;19623;52.482;9.762;2023-01-06T02:12:35;9.40;99.90
33255;DHT22;19623;52.482;9.762;2023-01-06T02:15:01;9.40;99.90
33255;DHT22;19623;52.482;9.762;2023-01-06T02:44:09;9.50;99.90
33255;DHT22;19623;52.482;9.762;2023-01-06T02:47:09;9.50;99.90
33255;DHT22;19623;52.482;9.762;2023-01-06T02:52:35;9.60;99.90
33255;DHT22;19623;52.482;9.762;2023-01-06T02:55:05;9.60;99.90
33255;DHT22;19623;52.482;9.762;2023-01-06T03:00:18;9.60;99.90
33255;DHT22;19623;52.482;9.762;2023-01-06T03:02:50;9.70;99.90
33255;DHT22;19623;52.482;9.762;2023-01-06T03:05:18;9.70;99.90
33255;DHT22;19623;52.482;9.762;2023-01-06T03:07:46;9.70;99.90
33255;DHT22;19623;52.482;9.762;2023-01-06T03:10:15;9.70;99.90
33255;DHT22;19623;52.482;9.762;2023-01-06T03:13:09;9.60;99.90
33255;DHT22;19623;52.482;9.762;2023-01-06T03:15:37;9.50;99.90
33255;DHT22;19623;52.482;9.762;2023-01-06T03:18:03;9.50;99.90
33255;DHT22;19623;52.482;9.762;2023-01-06T03:20:29;9.50;99.90
33255;DHT22;19623;52.482;9.762;2023-01-06T03:22:54;9.50;99.90
33255;DHT22;19623;52.482;9.762;2023-01-06T03:25:21;9.40;99.90
33255;DHT22;19623;52.482;9.762;2023-01-06T03:27:46;9.50;99.90
33255;DHT22;19623;52.482;9.762;2023-01-06T03:30:12;9.60;99.90
33255;DHT22;19623;52.482;9.762;2023-01-06T03:40:36;9.40;99.90
33255;DHT22;19623;52.482;9.762;2023-01-06T03:57:11;9.40;99.90
33255;DHT22;19623;52.482;9.762;2023-01-06T03:59:48;9.40;99.90
33255;DHT22;19623;52.482;9.762;2023-01-06T04:02:18;9.40;99.90
33255;DHT22;19623;52.482;9.762;2023-01-06T04:04:44;9.40;99.90
33255;DHT22;19623;52.482;9.762;2023-01-06T04:07:09;9.40;99.90
33255;DHT22;19623;52.482;9.762;2023-01-06T04:09:35;9.40;99.90
33255;DHT22;19623;52.482;9.762;2023-01-06T04:12:00;9.30;99.90
33255;DHT22;19623;52.482;9.762;2023-01-06T04:14:44;9.30;99.90
33255;DHT22;19623;52.482;9.762;2023-01-06T04:17:10;9.40;99.90
33255;DHT22;19623;52.482;9.762;2023-01-06T04:19:35;9.40;99.90
33255;DHT22;19623;52.482;9.762;2023-01-06T04:22:01;9.40;99.90
33255;DHT22;19623;52.482;9.762;2023-01-06T04:24:28;9.40;99.90
33255;DHT22;19623;52.482;9.762;2023-01-06T04:26:54;9.50;99.90
33255;DHT22;19623;52.482;9.762;2023-01-06T04:29:19;9.50;99.90
33255;DHT22;19623;52.482;9.762;2023-01-06T04:31:45;9.50;99.90
33255;DHT22;19623;52.482;9.762;2023-01-06T04:34:10;9.50;99.90
33255;DHT22;19623;52.482;9.762;2023-01-06T04:36:36;9.60;99.90
33255;DHT22;19623;52.482;9.762;2023-01-06T04:39:02;9.60;99.90
33255;DHT22;19623;52.482;9.762;2023-01-06T04:41:27;9.70;99.90
33255;DHT22;19623;52.482;9.762;2023-01-06T04:43:53;9.70;99.90
33255;DHT22;19623;52.482;9.762;2023-01-06T04:46:18;9.70;99.90
33255;DHT22;19623;52.482;9.762;2023-01-06T04:48:44;9.70;99.90
33255;DHT22;19623;52.482;9.762;2023-01-06T04:51:10;9.70;99.90
33255;DHT22;19623;52.482;9.762;2023-01-06T04:53:37;9.80;99.90
33255;DHT22;19623;52.482;9.762;2023-01-06T04:56:05;9.70;99.90
33255;DHT22;19623;52.482;9.762;2023-01-06T04:58:31;9.70;99.90
33255;DHT22;19623;52.482;9.762;2023-01-06T05:01:06;9.70;99.90
33255;DHT22;19623;52.482;9.762;2023-01-06T05:03:32;9.80;99.90
33255;DHT22;19623;52.482;9.762;2023-01-06T05:06:05;9.80;99.90
33255;DHT22;19623;52.482;9.762;2023-01-06T05:08:34;9.80;99.90
33255;DHT22;19623;52.482;9.762;2023-01-06T05:11:01;9.70;99.90
33255;DHT22;19623;52.482;9.762;2023-01-06T05:13:29;9.70;99.90
33255;DHT22;19623;52.482;9.762;2023-01-06T05:15:55;9.70;99.90
33255;DHT22;19623;52.482;9.762;2023-01-06T05:18:21;9.70;99.90
33255;DHT22;19623;52.482;9.762;2023-01-06T05:20:54;9.70;99.90
33255;DHT22;19623;52.482;9.762;2023-01-06T05:23:20;9.70;99.90
33255;DHT22;19623;52.482;9.762;2023-01-06T05:25:46;9.80;99.90
33255;DHT22;19623;52.482;9.762;2023-01-06T05:28:12;9.70;99.90
33255;DHT22;19623;52.482;9.762;2023-01-06T05:30:38;9.70;99.90
33255;DHT22;19623;52.482;9.762;2023-01-06T05:33:03;9.70;99.90
33255;DHT22;19623;52.482;9.762;2023-01-06T05:35:29;9.80;99.90
33255;DHT22;19623;52.482;9.762;2023-01-06T05:37:55;9.80;99.90
33255;DHT22;19623;52.482;9.762;2023-01-06T05:40:21;9.80;99.90
33255;DHT22;19623;52.482;9.762;2023-01-06T05:42:46;9.80;99.90
33255;DHT22;19623;52.482;9.762;2023-01-06T05:45:12;9.80;99.90
33255;DHT22;19623;52.482;9.762;2023-01-06T05:47:37;9.80;99.90
33255;DHT22;19623;52.482;9.762;2023-01-06T05:50:04;9.80;99.90
33255;DHT22;19623;52.482;9.762;2023-01-06T05:52:29;9.90;99.90
33255;DHT22;19623;52.482;9.762;2023-01-06T05:54:55;9.90;99.90
33255;DHT22;19623;52.482;9.762;2023-01-06T05:57:21;9.90;99.90
33255;DHT22;19623;52.482;9.762;2023-01-06T05:59:46;9.90;99.90
33255;DHT22;19623;52.482;9.762;2023-01-06T06:02:12;9.90;99.90
33255;DHT22;19623;52.482;9.762;2023-01-06T06:04:37;9.90;99.90
33255;DHT22;19623;52.482;9.762;2023-01-06T06:07:03;9.90;99.90
33255;DHT22;19623;52.482;9.762;2023-01-06T06:09:28;10.00;99.90
33255;DHT22;19623;52.482;9.762;2023-01-06T06:11:54;10.00;99.90
33255;DHT22;19623;52.482;9.762;2023-01-06T06:14:20;10.00;99.90
33255;DHT22;19623;52.482;9.762;2023-01-06T06:16:46;10.00;99.90
33255;DHT22;19623;52.482;9.762;2023-01-06T06:19:12;10.10;99.90
33255;DHT22;19623;52.482;9.762;2023-01-06T06:21:38;10.10;99.90
33255;DHT22;19623;52.482;9.762;2023-01-06T06:24:04;10.10;99.90
33255;DHT22;19623;52.482;9.762;2023-01-06T06:26:30;10.20;99.90
33255;DHT22;19623;52.482;9.762;2023-01-06T06:28:56;10.20;99.90
33255;DHT22;19623;52.482;9.762;2023-01-06T06:31:24;10.20;99.90
33255;DHT22;19623;52.482;9.762;2023-01-06T06:33:51;10.10;99.90
33255;DHT22;19623;52.482;9.762;2023-01-06T06:36:17;10.20;99.90
33255;DHT22;19623;52.482;9.762;2023-01-06T06:38:47;10.20;99.90
33255;DHT22;19623;52.482;9.762;2023-01-06T06:41:13;10.10;99.90
33255;DHT22;19623;52.482;9.762;2023-01-06T06:43:39;10.10;99.90
33255;DHT22;19623;52.482;9.762;2023-01-06T06:46:06;10.10;99.90
33255;DHT22;19623;52.482;9.762;2023-01-06T06:48:31;10.10;99.90
33255;DHT22;19623;52.482;9.762;2023-01-06T06:51:03;10.10;99.90
33255;DHT22;19623;52.482;9.762;2023-01-06T06:53:29;10.10;99.90
33255;DHT22;19623;52.482;9.762;2023-01-06T06:55:57;10.00;99.90
33255;DHT22;19623;52.482;9.762;2023-01-06T06:58:22;10.00;99.90
33255;DHT22;19623;52.482;9.762;2023-01-06T07:00:48;10.00;99.90
33255;DHT22;19623;52.482;9.762;2023-01-06T07:03:14;9.90;99.90
33255;DHT22;19623;52.482;9.762;2023-01-06T07:05:44;10.00;99.90
33255;DHT22;19623;52.482;9.762;2023-01-06T07:08:11;10.10;99.90
33255;DHT22;19623;52.482;9.762;2023-01-06T07:10:37;10.00;99.90
33255;DHT22;19623;52.482;9.762;2023-01-06T07:13:03;10.00;99.90
33255;DHT22;19623;52.482;9.762;2023-01-06T07:15:28;10.00;99.90
33255;DHT22;19623;52.482;9.762;2023-01-06T07:17:54;10.10;99.90
33255;DHT22;19623;52.482;9.762;2023-01-06T07:20:23;10.20;99.90
33255;DHT22;19623;52.482;9.762;2023-01-06T07:22:49;10.20;99.90
33255;DHT22;19623;52.482;9.762;2023-01-06T07:25:14;10.10;99.90
33255;DHT22;19623;52.482;9.762;2023-01-06T07:27:40;10.20;99.90
33255;DHT22;19623;52.482;9.762;2023-01-06T07:30:06;10.20;99.90
33255;DHT22;19623;52.482;9.762;2023-01-06T07:32:32;10.30;99.90
33255;DHT22;19623;52.482;9.762;2023-01-06T07:34:57;10.30;99.90
33255;DHT22;19623;52.482;9.762;2023-01-06T07:37:23;10.40;99.90
33255;DHT22;19623;52.482;9.762;2023-01-06T07:39:49;10.40;99.90
33255;DHT22;19623;52.482;9.762;2023-01-06T07:42:14;10.40;99.90
33255;DHT22;19623;52.482;9.762;2023-01-06T07:44:40;10.50;99.90
33255;DHT22;19623;52.482;9.762;2023-01-06T07:47:06;10.40;99.90
33255;DHT22;19623;52.482;9.762;2023-01-06T07:49:31;10.40;99.90
33255;DHT22;19623;52.482;9.762;2023-01-06T07:51:57;10.40;99.90
33255;DHT22;19623;52.482;9.762;2023-01-06T07:54:22;10.40;99.90
33255;DHT22;19623;52.482;9.762;2023-01-06T07:56:48;10.40;99.90
33255;DHT22;19623;52.482;9.762;2023-01-06T07:59:14;10.40;99.90
33255;DHT22;19623;52.482;9.762;2023-01-06T08:01:39;10.30;99.90
33255;DHT22;19623;52.482;9.762;2023-01-06T08:04:05;10.40;99.90
33255;DHT22;19623;52.482;9.762;2023-01-06T08:06:30;10.40;99.90
33255;DHT22;19623;52.482;9.762;2023-01-06T08:08:56;10.40;99.90
33255;DHT22;19623;52.482;9.762;2023-01-06T08:11:21;10.60;99.90
33255;DHT22;19623;52.482;9.762;2023-01-06T08:13:47;10.70;99.90
33255;DHT22;19623;52.482;9.762;2023-01-06T08:16:13;10.70;99.90
33255;DHT22;19623;52.482;9.762;2023-01-06T08:18:39;10.60;99.90
33255;DHT22;19623;52.482;9.762;2023-01-06T08:21:08;10.60;99.90
33255;DHT22;19623;52.482;9.762;2023-01-06T08:23:34;10.60;99.90
33255;DHT22;19623;52.482;9.762;2023-01-06T08:26:06;10.60;99.90
33255;DHT22;19623;52.482;9.762;2023-01-06T08:28:32;10.70;99.90
33255;DHT22;19623;52.482;9.762;2023-01-06T08:30:58;10.80;99.90
33255;DHT22;19623;52.482;9.762;2023-01-06T08:33:24;10.80;99.90
33255;DHT22;19623;52.482;9.762;2023-01-06T08:35:56;10.80;99.90
33255;DHT22;19623;52.482;9.762;2023-01-06T08:38:22;11.00;99.90
33255;DHT22;19623;52.482;9.762;2023-01-06T08:40:47;10.90;99.90
33255;DHT22;19623;52.482;9.762;2023-01-06T08:43:15;10.90;99.90
33255;DHT22;19623;52.482;9.762;2023-01-06T08:45:41;11.00;99.90
33255;DHT22;19623;52.482;9.762;2023-01-06T08:48:07;10.90;99.90
33255;DHT22;19623;52.482;9.762;2023-01-06T08:50:33;11.00;99.90
33255;DHT22;19623;52.482;9.762;2023-01-06T08:52:58;10.90;99.90
33255;DHT22;19623;52.482;9.762;2023-01-06T08:55:24;10.90;99.90
33255;DHT22;19623;52.482;9.762;2023-01-06T08:57:49;10.90;99.90
33255;DHT22;19623;52.482;9.762;2023-01-06T09:00:15;10.90;99.90
33255;DHT22;19623;52.482;9.762;2023-01-06T09:02:41;10.90;99.90
33255;DHT22;19623;52.482;9.762;2023-01-06T09:05:07;11.00;99.90
33255;DHT22;19623;52.482;9.762;2023-01-06T09:07:33;11.00;99.90
33255;DHT22;19623;52.482;9.762;2023-01-06T09:09:59;11.00;99.90
33255;DHT22;19623;52.482;9.762;2023-01-06T09:12:24;11.10;99.90
33255;DHT22;19623;52.482;9.762;2023-01-06T09:14:50;11.10;99.90
33255;DHT22;19623;52.482;9.762;2023-01-06T09:17:15;11.20;99.90
33255;DHT22;19623;52.482;9.762;2023-01-06T09:19:41;11.30;99.90
33255;DHT22;19623;52.482;9.762;2023-01-06T09:22:07;11.20;99.90
33255;DHT22;19623;52.482;9.762;2023-01-06T09:24:32;11.10;99.90
33255;DHT22;19623;52.482;9.762;2023-01-06T09:26:58;11.10;99.90
33255;DHT22;19623;52.482;9.762;2023-01-06T09:29:24;11.00;99.90
33255;DHT22;19623;52.482;9.762;2023-01-06T09:31:50;11.00;99.90
33255;DHT22;19623;52.482;9.762;2023-01-06T09:34:16;11.00;99.90
33255;DHT22;19623;52.482;9.762;2023-01-06T09:36:41;11.00;99.90
33255;DHT22;19623;52.482;9.762;2023-01-06T09:39:07;11.00;99.90
33255;DHT22;19623;52.482;9.762;2023-01-06T09:44:49;10.80;99.90
33255;DHT22;19623;52.482;9.762;2023-01-06T09:47:20;11.10;99.90
33255;DHT22;19623;52.482;9.762;2023-01-06T09:52:18;11.10;99.90
33255;DHT22;19623;52.482;9.762;2023-01-06T09:54:52;11.10;99.90
33255;DHT22;19623;52.482;9.762;2023-01-06T09:57:32;11.20;99.90
33255;DHT22;19623;52.482;9.762;2023-01-06T10:00:04;11.20;99.90
33255;DHT22;19623;52.482;9.762;2023-01-06T10:02:38;11.20;99.90
33255;DHT22;19623;52.482;9.762;2023-01-06T10:05:20;11.20;99.90
33255;DHT22;19623;52.482;9.762;2023-01-06T10:08:21;11.30;99.90
33255;DHT22;19623;52.482;9.762;2023-01-06T10:11:07;11.30;99.90
33255;DHT22;19623;52.482;9.762;2023-01-06T10:16:31;11.20;99.90
33255;DHT22;19623;52.482;9.762;2023-01-06T10:19:18;11.20;99.90
33255;DHT22;19623;52.482;9.762;2023-01-06T10:27:24;11.30;99.90
33255;DHT22;19623;52.482;9.762;2023-01-06T10:29:53;11.20;99.90
33255;DHT22;19623;52.482;9.762;2023-01-06T10:32:21;11.30;99.90
33255;DHT22;19623;52.482;9.762;2023-01-06T10:34:50;11.40;99.90
33255;DHT22;19623;52.482;9.762;2023-01-06T10:39:43;11.40;99.90
33255;DHT22;19623;52.482;9.762;2023-01-06T10:42:33;11.40;99.90
33255;DHT22;19623;52.482;9.762;2023-01-06T10:45:27;11.40;99.90
33255;DHT22;19623;52.482;9.762;2023-01-06T10:47:53;11.40;99.90
33255;DHT22;19623;52.482;9.762;2023-01-06T10:50:19;11.30;99.90
33255;DHT22;19623;52.482;9.762;2023-01-06T10:52:47;11.30;99.90
33255;DHT22;19623;52.482;9.762;2023-01-06T10:58:40;11.40;99.90
33255;DHT22;19623;52.482;9.762;2023-01-06T11:01:23;11.50;99.90
33255;DHT22;19623;52.482;9.762;2023-01-06T11:04:10;11.50;99.90
33255;DHT22;19623;52.482;9.762;2023-01-06T11:09:36;11.50;99.90
33255;DHT22;19623;52.482;9.762;2023-01-06T11:12:18;11.50;99.90
33255;DHT22;19623;52.482;9.762;2023-01-06T11:14:52;11.50;99.90
33255;DHT22;19623;52.482;9.762;2023-01-06T11:17:20;11.60;99.90
33255;DHT22;19623;52.482;9.762;2023-01-06T11:20:48;11.70;99.90
33255;DHT22;19623;52.482;9.762;2023-01-06T11:22:52;11.60;99.90
33255;DHT22;19623;52.482;9.762;2023-01-06T11:30:39;11.50;99.90
33255;DHT22;19623;52.482;9.762;2023-01-06T11:33:14;11.50;99.90
33255;DHT22;19623;52.482;9.762;2023-01-06T11:35:41;11.60;99.90
33255;DHT22;19623;52.482;9.762;2023-01-06T11:38:15;11.50;99.90
33255;DHT22;19623;52.482;9.762;2023-01-06T11:40:43;11.50;99.90
33255;DHT22;19623;52.482;9.762;2023-01-06T11:43:16;11.50;99.90
33255;DHT22;19623;52.482;9.762;2023-01-06T11:46:05;11.50;99.90
33255;DHT22;19623;52.482;9.762;2023-01-06T11:48:54;11.50;99.90
33255;DHT22;19623;52.482;9.762;2023-01-06T11:51:51;11.50;99.90
33255;DHT22;19623;52.482;9.762;2023-01-06T11:54:30;11.50;99.90
33255;DHT22;19623;52.482;9.762;2023-01-06T11:57:10;11.50;99.90
33255;DHT22;19623;52.482;9.762;2023-01-06T12:05:47;11.70;99.90
33255;DHT22;19623;52.482;9.762;2023-01-06T12:08:20;11.80;99.90
33255;DHT22;19623;52.482;9.762;2023-01-06T12:10:56;11.80;99.90
33255;DHT22;19623;52.482;9.762;2023-01-06T12:13:22;11.80;99.90
33255;DHT22;19623;52.482;9.762;2023-01-06T12:15:57;11.90;99.90
33255;DHT22;19623;52.482;9.762;2023-01-06T12:18:28;12.10;99.90
33255;DHT22;19623;52.482;9.762;2023-01-06T12:20:58;12.10;99.90
33255;DHT22;19623;52.482;9.762;2023-01-06T12:23:31;12.20;99.90
33255;DHT22;19623;52.482;9.762;2023-01-06T12:26:01;12.40;99.90
33255;DHT22;19623;52.482;9.762;2023-01-06T12:28:42;12.50;99.90
33255;DHT22;19623;52.482;9.762;2023-01-06T12:31:18;12.60;99.90
33255;DHT22;19623;52.482;9.762;2023-01-06T12:33:59;12.60;99.90
33255;DHT22;19623;52.482;9.762;2023-01-06T12:36:37;12.60;99.90
33255;DHT22;19623;52.482;9.762;2023-01-06T12:39:22;12.50;99.90
33255;DHT22;19623;52.482;9.762;2023-01-06T12:41:53;12.40;99.90
33255;DHT22;19623;52.482;9.762;2023-01-06T12:44:35;12.30;99.90
33255;DHT22;19623;52.482;9.762;2023-01-06T12:52:40;12.40;99.90
33255;DHT22;19623;52.482;9.762;2023-01-06T12:55:13;12.40;99.90
33255;DHT22;19623;52.482;9.762;2023-01-06T12:58:05;12.30;99.90
33255;DHT22;19623;52.482;9.762;2023-01-06T13:06:24;12.40;99.90
33255;DHT22;19623;52.482;9.762;2023-01-06T13:14:20;12.50;99.90
33255;DHT22;19623;52.482;9.762;2023-01-06T13:16:55;12.50;99.90
33255;DHT22;19623;52.482;9.762;2023-01-06T13:19:48;12.50;99.90
33255;DHT22;19623;52.482;9.762;2023-01-06T13:28:16;12.30;99.90
33255;DHT22;19623;52.482;9.762;2023-01-06T13:31:02;12.20;99.90
33255;DHT22;19623;52.482;9.762;2023-01-06T13:38:54;11.90;99.90
33255;DHT22;19623;52.482;9.762;2023-01-06T13:41:28;11.80;99.90
33255;DHT22;19623;52.482;9.762;2023-01-06T13:43:57;11.70;99.90
33255;DHT22;19623;52.482;9.762;2023-01-06T13:46:24;11.50;99.90
33255;DHT22;19623;52.482;9.762;2023-01-06T13:48:59;11.40;99.90
33255;DHT22;19623;52.482;9.762;2023-01-06T13:51:34;11.30;99.90
33255;DHT22;19623;52.482;9.762;2023-01-06T13:54:00;11.20;99.90
33255;DHT22;19623;52.482;9.762;2023-01-06T13:56:32;11.10;99.90
33255;DHT22;19623;52.482;9.762;2023-01-06T13:59:27;11.10;99.90
33255;DHT22;19623;52.482;9.762;2023-01-06T14:01:52;11.10;99.90
33255;DHT22;19623;52.482;9.762;2023-01-06T14:07:04;11.00;99.90
33255;DHT22;19623;52.482;9.762;2023-01-06T14:09:33;11.00;99.90
33255;DHT22;19623;52.482;9.762;2023-01-06T14:12:17;11.00;99.90
33255;DHT22;19623;52.482;9.762;2023-01-06T14:14:43;11.10;99.90
33255;DHT22;19623;52.482;9.762;2023-01-06T14:17:37;11.10;99.90
33255;DHT22;19623;52.482;9.762;2023-01-06T14:20:03;11.10;99.90
33255;DHT22;19623;52.482;9.762;2023-01-06T14:22:29;11.10;99.90
33255;DHT22;19623;52.482;9.762;2023-01-06T14:25:03;11.10;99.90
33255;DHT22;19623;52.482;9.762;2023-01-06T14:30:24;11.10;99.90
33255;DHT22;19623;52.482;9.762;2023-01-06T14:35:21;11.10;99.90
33255;DHT22;19623;52.482;9.762;2023-01-06T14:37:57;11.10;99.90
33255;DHT22;19623;52.482;9.762;2023-01-06T14:40:26;11.10;99.90
33255;DHT22;19623;52.482;9.762;2023-01-06T14:42:56;11.00;99.90
33255;DHT22;19623;52.482;9.762;2023-01-06T14:45:34;11.00;99.90
33255;DHT22;19623;52.482;9.762;2023-01-06T14:48:08;10.90;99.90
33255;DHT22;19623;52.482;9.762;2023-01-06T14:50:38;10.90;99.90
33255;DHT22;19623;52.482;9.762;2023-01-06T14:53:11;10.80;99.90
33255;DHT22;19623;52.482;9.762;2023-01-06T14:55:43;10.80;99.90
33255;DHT22;19623;52.482;9.762;2023-01-06T14:58:31;10.70;99.90
33255;DHT22;19623;52.482;9.762;2023-01-06T15:00:58;10.70;99.90
33255;DHT22;19623;52.482;9.762;2023-01-06T15:03:26;10.60;99.90
33255;DHT22;19623;52.482;9.762;2023-01-06T15:06:09;10.60;99.90
33255;DHT22;19623;52.482;9.762;2023-01-06T15:08:35;10.50;99.90
33255;DHT22;19623;52.482;9.762;2023-01-06T15:11:27;10.50;99.90
33255;DHT22;19623;52.482;9.762;2023-01-06T15:13:54;10.40;99.90
33255;DHT22;19623;52.482;9.762;2023-01-06T15:18:58;10.30;99.90
33255;DHT22;19623;52.482;9.762;2023-01-06T15:21:25;10.20;99.90
33255;DHT22;19623;52.482;9.762;2023-01-06T15:23:52;10.10;99.90
33255;DHT22;19623;52.482;9.762;2023-01-06T15:26:27;10.00;99.90
33255;DHT22;19623;52.482;9.762;2023-01-06T15:31:22;9.90;99.90
33255;DHT22;19623;52.482;9.762;2023-01-06T15:33:50;10.00;99.90
33255;DHT22;19623;52.482;9.762;2023-01-06T15:36:20;9.90;99.90
33255;DHT22;19623;52.482;9.762;2023-01-06T15:38:47;9.90;99.90
33255;DHT22;19623;52.482;9.762;2023-01-06T15:41:14;9.80;99.90
33255;DHT22;19623;52.482;9.762;2023-01-06T15:44:18;9.80;99.90
33255;DHT22;19623;52.482;9.762;2023-01-06T15:46:45;9.80;99.90
33255;DHT22;19623;52.482;9.762;2023-01-06T15:49:48;9.80;99.90
33255;DHT22;19623;52.482;9.762;2023-01-06T15:52:35;9.80;99.90
33255;DHT22;19623;52.482;9.762;2023-01-06T15:55:03;9.80;99.90
33255;DHT22;19623;52.482;9.762;2023-01-06T15:57:34;9.80;99.90
33255;DHT22;19623;52.482;9.762;2023-01-06T16:00:07;9.80;99.90
33255;DHT22;19623;52.482;9.762;2023-01-06T16:02:33;9.70;99.90
33255;DHT22;19623;52.482;9.762;2023-01-06T16:04:59;9.70;99.90
33255;DHT22;19623;52.482;9.762;2023-01-06T16:07:37;9.70;99.90
33255;DHT22;19623;52.482;9.762;2023-01-06T16:10:29;9.60;99.90
33255;DHT22;19623;52.482;9.762;2023-01-06T16:13:28;9.70;99.90
33255;DHT22;19623;52.482;9.762;2023-01-06T16:18:28;9.60;99.90
33255;DHT22;19623;52.482;9.762;2023-01-06T16:20:55;9.60;99.90
33255;DHT22;19623;52.482;9.762;2023-01-06T16:23:28;9.50;99.90
33255;DHT22;19623;52.482;9.762;2023-01-06T16:28:32;9.50;99.90
33255;DHT22;19623;52.482;9.762;2023-01-06T16:31:09;9.60;99.90
33255;DHT22;19623;52.482;9.762;2023-01-06T16:33:41;9.60;99.90
33255;DHT22;19623;52.482;9.762;2023-01-06T16:36:14;9.70;99.90
33255;DHT22;19623;52.482;9.762;2023-01-06T16:38:41;9.70;99.90
33255;DHT22;19623;52.482;9.762;2023-01-06T16:41:15;9.70;99.90
33255;DHT22;19623;52.482;9.762;2023-01-06T16:43:41;9.70;99.90
33255;DHT22;19623;52.482;9.762;2023-01-06T16:46:19;9.70;99.90
33255;DHT22;19623;52.482;9.762;2023-01-06T16:48:46;9.60;99.90
33255;DHT22;19623;52.482;9.762;2023-01-06T16:51:14;9.60;99.90
33255;DHT22;19623;52.482;9.762;2023-01-06T16:53:41;9.50;99.90
33255;DHT22;19623;52.482;9.762;2023-01-06T16:56:21;9.40;99.90
33255;DHT22;19623;52.482;9.762;2023-01-06T16:58:51;9.20;99.90
33255;DHT22;19623;52.482;9.762;2023-01-06T17:01:19;9.20;99.90
33255;DHT22;19623;52.482;9.762;2023-01-06T17:03:58;9.10;99.90
33255;DHT22;19623;52.482;9.762;2023-01-06T17:06:26;9.00;99.90
33255;DHT22;19623;52.482;9.762;2023-01-06T17:08:59;8.90;99.90
33255;DHT22;19623;52.482;9.762;2023-01-06T17:11:28;9.00;99.90
33255;DHT22;19623;52.482;9.762;2023-01-06T17:13:58;9.10;99.90
33255;DHT22;19623;52.482;9.762;2023-01-06T17:16:28;9.10;99.90
33255;DHT22;19623;52.482;9.762;2023-01-06T17:21:41;9.10;99.90
33255;DHT22;19623;52.482;9.762;2023-01-06T17:24:18;9.20;99.90
33255;DHT22;19623;52.482;9.762;2023-01-06T17:27:16;9.10;99.90
33255;DHT22;19623;52.482;9.762;2023-01-06T17:29:42;9.10;99.90
33255;DHT22;19623;52.482;9.762;2023-01-06T17:32:37;9.00;99.90
33255;DHT22;19623;52.482;9.762;2023-01-06T17:35:27;8.80;99.90
33255;DHT22;19623;52.482;9.762;2023-01-06T17:38:01;8.80;99.90
33255;DHT22;19623;52.482;9.762;2023-01-06T17:40:32;8.80;99.90
33255;DHT22;19623;52.482;9.762;2023-01-06T17:43:09;8.80;99.90
33255;DHT22;19623;52.482;9.762;2023-01-06T17:45:39;8.80;99.90
33255;DHT22;19623;52.482;9.762;2023-01-06T17:48:09;8.70;99.90
33255;DHT22;19623;52.482;9.762;2023-01-06T17:50:44;8.80;99.90
33255;DHT22;19623;52.482;9.762;2023-01-06T17:53:17;8.80;99.90
33255;DHT22;19623;52.482;9.762;2023-01-06T17:56:09;8.80;99.90
33255;DHT22;19623;52.482;9.762;2023-01-06T17:58:37;8.70;99.90
33255;DHT22;19623;52.482;9.762;2023-01-06T18:01:06;8.70;99.90
33255;DHT22;19623;52.482;9.762;2023-01-06T18:03:33;8.80;99.90
33255;DHT22;19623;52.482;9.762;2023-01-06T18:06:02;8.80;99.90
33255;DHT22;19623;52.482;9.762;2023-01-06T18:08:31;8.70;99.90
33255;DHT22;19623;52.482;9.762;2023-01-06T18:11:28;8.70;99.90
33255;DHT22;19623;52.482;9.762;2023-01-06T18:13:54;8.70;99.90
33255;DHT22;19623;52.482;9.762;2023-01-06T18:16:27;8.70;99.90
33255;DHT22;19623;52.482;9.762;2023-01-06T18:19:01;8.70;99.90